Airport Name : Fulton Co

Other Name : Fulton Co

ICAO : KRCR

IATA : RCR

FAA : RCR

Latitude : 41.065556

Longitude : -86.181694

Country : United States

Local Date and Time : 07 Dec 2022 16:03

 

TAF (Terminal Aerodrome Forecast)

 

METAR (METeorological Aerodrome Report)

KRCR 072055Z AUTO 28007KT 190V310 10SM OVC020 09/06 A3026 RMK AO2

KRCR 072035Z AUTO VRB06KT 10SM OVC022 09/05 A3026 RMK AO2

KRCR 072015Z AUTO 00000KT 10SM OVC021 09/05 A3026 RMK AO2

KRCR 071955Z AUTO 27007KT 220V300 10SM OVC021 09/05 A3025 RMK AO2

KRCR 071935Z AUTO VRB06KT 7SM OVC019 08/05 A3025 RMK AO2

KRCR 071915Z AUTO VRB05KT 6SM HZ OVC017 08/05 A3024 RMK AO2

KRCR 071855Z AUTO VRB06KT 6SM HZ OVC017 08/05 A3024 RMK AO2

KRCR 071835Z AUTO 00000KT 6SM HZ OVC017 08/05 A3023 RMK AO2

KRCR 071815Z AUTO 00000KT 6SM HZ OVC018 08/05 A3023 RMK AO2

KRCR 071755Z AUTO 00000KT 6SM HZ OVC018 08/05 A3023 RMK AO2

KRCR 071735Z AUTO 00000KT 6SM HZ OVC018 08/05 A3023 RMK AO2

KRCR 071715Z AUTO 00000KT 6SM HZ OVC019 08/05 A3022 RMK AO2

To Charter a Jet Click here.